createdAt,value
2019-03-04T00:01:49.536Z,3.08
2019-03-04T00:04:26.619Z,3.42
2019-03-04T00:07:03.758Z,2.90
2019-03-04T00:09:38.341Z,2.80
2019-03-04T00:12:12.873Z,2.75
2019-03-04T00:14:47.834Z,3.95
2019-03-04T00:17:22.516Z,3.20
2019-03-04T00:19:59.747Z,3.35
2019-03-04T00:22:34.409Z,3.10
2019-03-04T00:25:11.622Z,3.80
2019-03-04T00:27:48.591Z,2.98
2019-03-04T00:30:23.770Z,3.35
2019-03-04T00:33:00.840Z,2.98
2019-03-04T00:35:38.330Z,3.20
2019-03-04T00:38:12.987Z,2.72
2019-03-04T00:40:50.157Z,2.60
2019-03-04T00:43:27.375Z,3.12
2019-03-04T00:46:01.951Z,3.12
2019-03-04T00:48:39.179Z,3.40
2019-03-04T00:51:14.897Z,2.90
2019-03-04T00:53:49.552Z,2.90
2019-03-04T00:56:26.724Z,2.80
2019-03-04T01:01:58.377Z,3.70
2019-03-04T01:04:35.409Z,2.75
2019-03-04T01:07:12.569Z,3.22
2019-03-04T01:09:47.257Z,4.37
2019-03-04T01:12:21.931Z,3.40
2019-03-04T01:14:59.011Z,3.45
2019-03-04T01:17:36.137Z,3.50
2019-03-04T01:20:11.239Z,3.55
2019-03-04T01:22:48.462Z,2.60
2019-03-04T01:25:25.895Z,3.12
2019-03-04T01:28:00.502Z,3.40
2019-03-04T01:30:37.650Z,2.62
2019-03-04T01:33:12.304Z,3.37
2019-03-04T01:35:46.897Z,3.25
2019-03-04T01:38:21.535Z,2.72
2019-03-04T01:40:58.620Z,2.85
2019-03-04T01:43:35.858Z,3.37
2019-03-04T01:46:10.513Z,2.72
2019-03-04T01:48:45.149Z,2.77
2019-03-04T01:51:19.773Z,2.20
2019-03-04T01:53:54.438Z,2.30
2019-03-04T01:56:31.591Z,2.58
2019-03-04T01:59:08.667Z,2.47
2019-03-04T02:01:45.970Z,2.70
2019-03-04T02:04:20.647Z,2.60
2019-03-04T02:07:00.162Z,2.40
2019-03-04T02:09:36.537Z,2.75
2019-03-04T02:12:14.889Z,2.40
2019-03-04T02:14:52.217Z,2.60
2019-03-04T02:17:29.307Z,2.60
2019-03-04T02:20:06.435Z,2.80
2019-03-04T02:22:43.438Z,2.75
2019-03-04T02:25:22.464Z,2.60
2019-03-04T02:28:00.931Z,2.50
2019-03-04T02:30:38.015Z,3.00
2019-03-04T02:33:15.032Z,3.05
2019-03-04T02:35:52.354Z,2.90
2019-03-04T02:38:32.492Z,7.65
2019-03-04T02:41:09.647Z,3.27
2019-03-04T02:43:46.736Z,3.35
2019-03-04T02:46:23.911Z,3.17
2019-03-04T02:49:01.008Z,3.00
2019-03-04T02:51:38.375Z,2.65
2019-03-04T02:54:15.483Z,2.25
2019-03-04T02:56:52.752Z,2.40
2019-03-04T02:59:29.849Z,3.55
2019-03-04T03:02:08.091Z,4.30
2019-03-04T03:04:45.115Z,3.00
2019-03-04T03:07:22.252Z,2.95
2019-03-04T03:09:59.441Z,3.42
2019-03-04T03:12:36.512Z,3.02
2019-03-04T03:15:13.883Z,3.45
2019-03-04T03:17:51.033Z,3.55
2019-03-04T03:20:28.226Z,3.12
2019-03-04T03:23:05.331Z,3.40
2019-03-04T03:25:42.422Z,2.95
2019-03-04T03:28:19.690Z,2.42
2019-03-04T03:30:57.200Z,3.85
2019-03-04T03:33:34.252Z,3.25
2019-03-04T03:36:12.016Z,3.02
2019-03-04T03:38:51.418Z,3.12
2019-03-04T03:41:28.721Z,2.98
2019-03-04T03:44:05.872Z,2.77
2019-03-04T03:46:40.572Z,2.58
2019-03-04T03:49:17.749Z,2.80
2019-03-04T03:51:52.483Z,2.87
2019-03-04T03:54:27.127Z,2.80
2019-03-04T03:57:04.264Z,2.45
2019-03-04T03:59:41.530Z,3.05
2019-03-04T04:02:18.844Z,3.27
2019-03-04T04:04:55.919Z,3.30
2019-03-04T04:07:33.019Z,3.10
2019-03-04T04:10:10.987Z,2.75
2019-03-04T04:12:48.043Z,2.60
2019-03-04T04:15:27.538Z,2.80
2019-03-04T04:18:04.707Z,2.35
2019-03-04T04:20:41.767Z,2.30
2019-03-04T04:23:18.893Z,2.20
2019-03-04T04:25:56.345Z,2.47
2019-03-04T04:28:31.685Z,2.62
2019-03-04T04:31:08.698Z,2.47
2019-03-04T04:33:45.931Z,2.60
2019-03-04T04:36:23.301Z,2.50
2019-03-04T04:38:58.005Z,2.58
2019-03-04T04:41:32.620Z,2.40
2019-03-04T04:44:07.243Z,2.47
2019-03-04T04:46:52.237Z,2.52
2019-03-04T04:49:26.994Z,2.67
2019-03-04T04:52:04.070Z,3.02
2019-03-04T04:54:41.386Z,2.67
2019-03-04T04:57:18.648Z,3.50
2019-03-04T04:59:53.356Z,4.05
2019-03-04T05:02:30.466Z,3.20
2019-03-04T05:44:21.720Z,3.37
2019-03-04T05:46:59.155Z,4.62
2019-03-04T05:49:36.391Z,3.33
2019-03-04T05:52:14.567Z,2.98
2019-03-04T05:54:51.701Z,3.25
2019-03-04T05:57:28.908Z,3.00
2019-03-04T06:00:06.089Z,3.77
2019-03-04T06:02:43.669Z,3.10
2019-03-04T06:05:21.242Z,3.02
2019-03-04T06:08:01.411Z,2.67
2019-03-04T06:10:38.479Z,3.15
2019-03-04T06:13:15.532Z,2.90
2019-03-04T06:15:53.611Z,3.17
2019-03-04T06:18:30.712Z,2.87
2019-03-04T06:21:09.287Z,3.33
2019-03-04T06:23:47.895Z,3.47
2019-03-04T06:26:25.409Z,2.67
2019-03-04T06:29:02.629Z,3.47
2019-03-04T06:31:40.117Z,3.15
2019-03-04T06:34:17.191Z,3.30
2019-03-04T06:36:53.111Z,3.45
2019-03-04T06:39:30.107Z,3.45
2019-03-04T06:42:07.213Z,3.25
2019-03-04T06:44:41.747Z,3.58
2019-03-04T06:47:18.861Z,3.33
2019-03-04T06:49:53.512Z,3.95
2019-03-04T06:52:28.064Z,3.72
2019-03-04T06:55:05.658Z,3.70
2019-03-04T06:57:41.971Z,3.22
2019-03-04T07:00:24.554Z,3.52
2019-03-04T07:03:02.213Z,3.52
2019-03-04T07:05:52.677Z,3.77
2019-03-04T07:09:17.142Z,3.80
2019-03-04T07:11:54.179Z,3.52
2019-03-04T07:14:31.284Z,3.40
2019-03-04T07:17:08.880Z,3.50
2019-03-04T07:19:46.767Z,3.62
2019-03-04T07:22:23.903Z,3.58
2019-03-04T07:25:01.530Z,3.47
2019-03-04T07:27:38.884Z,4.10
2019-03-04T07:30:18.336Z,3.80
2019-03-04T07:32:55.477Z,3.83
2019-03-04T07:35:32.600Z,3.37
2019-03-04T07:38:41.870Z,6.22
2019-03-04T07:41:19.173Z,5.65
2019-03-04T07:43:56.693Z,4.40
2019-03-04T07:46:33.964Z,3.83
2019-03-04T07:49:12.677Z,3.90
2019-03-04T07:51:49.893Z,4.08
2019-03-04T07:54:27.230Z,3.67
2019-03-04T07:57:05.731Z,4.15
2019-03-04T07:59:42.901Z,3.87
2019-03-04T08:02:21.447Z,3.83
2019-03-04T08:04:58.757Z,3.72
2019-03-04T08:07:50.317Z,3.40
2019-03-04T08:11:09.602Z,3.35
2019-03-04T08:13:50.485Z,3.70
2019-03-04T08:16:28.996Z,3.02
2019-03-04T08:19:08.796Z,3.45
2019-03-04T08:21:47.542Z,4.58
2019-03-04T08:24:24.969Z,3.75
2019-03-04T08:27:02.356Z,3.75
2019-03-04T08:29:39.454Z,3.65
2019-03-04T08:32:16.599Z,3.45
2019-03-04T08:34:53.750Z,3.87
2019-03-04T08:37:30.893Z,3.92
2019-03-04T08:40:13.905Z,3.90
2019-03-04T08:42:51.362Z,3.70
2019-03-04T08:45:28.509Z,3.80
2019-03-04T08:48:03.236Z,3.42
2019-03-04T08:50:44.508Z,4.03
2019-03-04T08:53:21.721Z,3.80
2019-03-04T08:55:56.398Z,3.47
2019-03-04T08:58:36.566Z,4.33
2019-03-04T09:01:13.765Z,4.00
2019-03-04T09:03:54.318Z,3.90
2019-03-04T09:06:32.663Z,4.33
2019-03-04T09:09:11.381Z,3.87
2019-03-04T09:11:46.315Z,4.47
2019-03-04T09:14:23.477Z,4.15
2019-03-04T09:17:00.634Z,4.05
2019-03-04T09:19:37.747Z,3.80
2019-03-04T09:22:15.007Z,3.70
2019-03-04T09:24:52.104Z,3.67
2019-03-04T09:27:29.574Z,4.00
2019-03-04T09:30:04.283Z,4.67
2019-03-04T09:32:42.513Z,3.92
2019-03-04T09:35:17.523Z,4.00
2019-03-04T09:37:52.313Z,4.58
2019-03-04T09:40:30.705Z,4.47
2019-03-04T09:43:08.865Z,4.50
2019-03-04T09:45:43.531Z,4.30
2019-03-04T09:48:23.215Z,4.08
2019-03-04T09:51:00.372Z,4.22
2019-03-04T09:53:39.368Z,4.03
2019-03-04T09:56:15.357Z,3.72
2019-03-04T09:58:52.498Z,4.30
2019-03-04T10:01:35.295Z,4.10
2019-03-04T10:04:30.279Z,4.22
2019-03-04T10:07:07.859Z,4.70
2019-03-04T10:10:05.461Z,4.22
2019-03-04T10:12:56.276Z,3.55
2019-03-04T10:16:18.452Z,4.22
2019-03-04T10:19:16.701Z,4.37
2019-03-04T10:22:05.160Z,4.12
2019-03-04T10:24:50.531Z,4.20
2019-03-04T10:28:14.911Z,4.20
2019-03-04T10:31:27.106Z,3.98
2019-03-04T10:34:52.016Z,3.95
2019-03-04T10:37:58.727Z,4.55
2019-03-04T10:41:15.593Z,4.78
2019-03-04T10:44:48.683Z,4.10
2019-03-04T10:47:26.085Z,4.60
2019-03-04T10:50:03.184Z,4.28
2019-03-04T10:52:43.493Z,4.35
2019-03-04T10:55:20.935Z,4.40
2019-03-04T10:57:58.173Z,3.65
2019-03-04T11:00:36.427Z,4.22
2019-03-04T11:03:13.866Z,4.17
2019-03-04T11:05:48.569Z,4.20
2019-03-04T11:08:25.759Z,4.37
2019-03-04T11:11:02.782Z,4.72
2019-03-04T11:13:39.974Z,3.87
2019-03-04T11:16:17.075Z,3.92
2019-03-04T11:18:54.435Z,4.87
2019-03-04T11:21:31.711Z,4.37
2019-03-04T11:24:09.575Z,3.87
2019-03-04T11:26:48.046Z,4.30
2019-03-04T11:29:22.770Z,3.90
2019-03-04T11:31:59.889Z,4.08
2019-03-04T11:34:34.703Z,4.62
2019-03-04T11:37:11.874Z,4.47
2019-03-04T11:39:52.452Z,4.50
2019-03-04T11:42:29.624Z,4.42
2019-03-04T11:45:04.435Z,4.28
2019-03-04T11:47:41.626Z,4.60
2019-03-04T11:50:19.887Z,4.50
2019-03-04T11:52:58.615Z,3.83
2019-03-04T11:55:36.523Z,4.40
2019-03-04T11:58:13.707Z,3.90
2019-03-04T12:00:59.263Z,3.85
2019-03-04T12:03:36.257Z,4.47
2019-03-04T12:06:13.745Z,4.33
2019-03-04T12:08:51.086Z,4.95
2019-03-04T12:11:37.770Z,4.12
2019-03-04T12:14:04.242Z,4.42
2019-03-04T12:16:41.283Z,4.28
2019-03-04T12:19:18.503Z,3.98
2019-03-04T12:21:55.600Z,4.22
2019-03-04T12:24:32.638Z,3.80
2019-03-04T12:27:09.997Z,3.98
2019-03-04T12:29:47.252Z,4.17
2019-03-04T12:32:29.699Z,3.98
2019-03-04T12:35:06.882Z,4.10
2019-03-04T12:37:44.096Z,4.22
2019-03-04T12:40:22.396Z,4.00
2019-03-04T12:42:59.772Z,3.90
2019-03-04T12:45:36.874Z,4.33
2019-03-04T12:48:11.562Z,3.87
2019-03-04T12:50:48.726Z,4.00
2019-03-04T12:53:25.779Z,3.33
2019-03-04T12:56:02.938Z,4.20
2019-03-04T12:58:40.443Z,4.33
2019-03-04T13:01:17.665Z,4.25
2019-03-04T13:03:54.752Z,4.08
2019-03-04T13:06:31.810Z,4.20
2019-03-04T13:09:14.511Z,4.35
2019-03-04T13:11:47.726Z,4.20
2019-03-04T13:14:24.877Z,3.92
2019-03-04T13:17:01.999Z,4.40
2019-03-04T13:19:39.240Z,4.40
2019-03-04T13:22:17.253Z,4.53
2019-03-04T13:24:51.945Z,3.80
2019-03-04T13:27:29.076Z,4.20
2019-03-04T13:30:03.766Z,4.28
2019-03-04T13:32:40.883Z,4.60
2019-03-04T13:35:24.393Z,4.40
2019-03-04T13:37:57.764Z,4.22
2019-03-04T13:40:35.892Z,4.47
2019-03-04T13:43:13.607Z,4.75
2019-03-04T13:45:50.767Z,4.03
2019-03-04T13:48:27.809Z,5.10
2019-03-04T13:51:04.991Z,3.98
2019-03-04T13:53:42.082Z,5.03
2019-03-04T13:56:19.228Z,4.60
2019-03-04T13:58:58.102Z,4.83
2019-03-04T14:01:35.219Z,5.12
2019-03-04T14:04:13.459Z,5.15
2019-03-04T14:06:50.666Z,4.33
2019-03-04T14:09:28.116Z,4.80
2019-03-04T14:12:05.414Z,4.90
2019-03-04T14:14:40.092Z,5.37
2019-03-04T14:17:17.474Z,5.15
2019-03-04T14:19:54.916Z,4.58
2019-03-04T14:22:40.076Z,4.62
2019-03-04T14:25:10.840Z,4.70
2019-03-04T14:27:48.006Z,4.85
2019-03-04T14:30:25.469Z,4.80
2019-03-04T14:33:02.631Z,6.90
2019-03-04T14:35:39.808Z,5.72
2019-03-04T14:38:17.050Z,4.97
2019-03-04T14:40:54.264Z,5.25
2019-03-04T14:43:28.931Z,6.05
2019-03-04T14:46:06.826Z,4.97
2019-03-04T14:48:43.877Z,4.30
2019-03-04T14:51:21.032Z,5.00
2019-03-04T14:53:58.168Z,5.03
2019-03-04T14:56:35.221Z,4.87
2019-03-04T14:59:11.265Z,5.70
2019-03-04T15:01:48.055Z,5.00
2019-03-04T15:04:25.325Z,4.97
2019-03-04T15:06:59.980Z,4.55
2019-03-04T15:09:37.099Z,4.53
2019-03-04T15:12:15.503Z,4.65
2019-03-04T15:14:52.491Z,4.75
2019-03-04T15:17:36.595Z,4.42
2019-03-04T15:20:15.556Z,4.58
2019-03-04T15:22:53.241Z,5.20
2019-03-04T15:25:29.366Z,4.90
2019-03-04T15:28:17.315Z,4.22
2019-03-04T15:31:00.074Z,4.42
2019-03-04T15:33:38.215Z,4.80
2019-03-04T15:36:15.488Z,4.67
2019-03-04T15:38:52.683Z,4.67
2019-03-04T15:41:29.948Z,4.62
2019-03-04T15:44:07.185Z,4.55
2019-03-04T15:46:44.429Z,4.50
2019-03-04T15:49:21.552Z,4.85
2019-03-04T15:51:58.581Z,4.62
2019-03-04T15:54:35.594Z,4.65
2019-03-04T15:57:12.794Z,5.17
2019-03-04T15:59:49.895Z,4.53
2019-03-04T16:02:26.998Z,4.83
2019-03-04T16:05:04.145Z,4.95
2019-03-04T16:07:41.307Z,4.50
2019-03-04T16:10:20.822Z,4.80
2019-03-04T16:12:55.637Z,4.45
2019-03-04T16:15:32.932Z,4.70
2019-03-04T16:18:10.087Z,4.50
2019-03-04T16:20:47.990Z,4.60
2019-03-04T16:23:25.254Z,4.70
2019-03-04T16:26:02.423Z,4.70
2019-03-04T16:28:39.622Z,4.40
2019-03-04T16:31:16.981Z,4.28
2019-03-04T16:33:54.910Z,4.95
2019-03-04T16:36:32.075Z,4.62
2019-03-04T16:39:09.842Z,4.28
2019-03-04T16:41:46.933Z,4.90
2019-03-04T16:44:21.617Z,4.47
2019-03-04T16:46:58.666Z,4.50
2019-03-04T16:49:35.768Z,4.50
2019-03-04T16:52:14.840Z,4.40
2019-03-04T16:54:52.236Z,3.75
2019-03-04T16:57:29.471Z,4.70
2019-03-04T17:00:04.467Z,4.60
2019-03-04T17:02:41.556Z,4.15
2019-03-04T17:05:20.094Z,4.65
2019-03-04T17:07:57.799Z,4.55
2019-03-04T17:10:35.025Z,4.40
2019-03-04T17:13:09.565Z,4.20
2019-03-04T17:15:46.660Z,4.33
2019-03-04T17:18:23.747Z,4.45
2019-03-04T17:21:01.330Z,4.30
2019-03-04T17:23:38.503Z,5.12
2019-03-04T17:26:15.778Z,4.47
2019-03-04T17:28:52.862Z,4.67
2019-03-04T17:31:30.393Z,4.53
2019-03-04T17:34:07.583Z,4.33
2019-03-04T17:36:44.638Z,4.22
2019-03-04T17:39:19.645Z,4.65
2019-03-04T17:41:57.411Z,4.47
2019-03-04T17:44:34.835Z,4.22
2019-03-04T17:47:12.014Z,5.20
2019-03-04T17:49:49.036Z,4.97
2019-03-04T17:52:26.052Z,4.87
2019-03-04T17:55:03.303Z,4.40
2019-03-04T17:57:40.562Z,4.45
2019-03-04T18:03:53.943Z,4.40
2019-03-04T18:06:30.958Z,4.37
2019-03-04T18:09:09.239Z,4.40
2019-03-04T18:11:47.639Z,4.62
2019-03-04T18:14:25.015Z,4.50
2019-03-04T18:17:02.309Z,4.87
2019-03-04T18:19:39.425Z,3.85
2019-03-04T18:22:16.564Z,4.30
2019-03-04T18:24:53.731Z,4.58
2019-03-04T18:27:34.429Z,4.50
2019-03-04T18:30:29.653Z,3.85
2019-03-04T18:33:40.998Z,3.90
2019-03-04T18:37:08.031Z,4.05
2019-03-04T18:40:09.215Z,4.22
2019-03-04T18:42:54.530Z,4.35
2019-03-04T18:45:51.219Z,4.65
2019-03-04T18:48:55.271Z,4.20
2019-03-04T18:51:37.106Z,4.15
2019-03-04T18:54:25.155Z,4.40
2019-03-04T18:57:02.366Z,4.72
2019-03-04T18:59:39.378Z,5.20
2019-03-04T19:02:16.659Z,4.78
2019-03-04T19:04:53.942Z,4.87
2019-03-04T19:07:31.377Z,4.80
2019-03-04T19:10:08.566Z,4.40
2019-03-04T19:12:45.700Z,5.28
2019-03-04T19:15:22.938Z,4.72
2019-03-04T19:17:59.970Z,5.28
2019-03-04T19:20:37.162Z,4.45
2019-03-04T19:23:14.343Z,4.60
2019-03-04T19:25:51.550Z,5.00
2019-03-04T19:28:28.652Z,4.90
2019-03-04T19:31:05.871Z,4.83
2019-03-04T19:33:43.027Z,5.10
2019-03-04T19:36:20.538Z,4.70
2019-03-04T19:38:57.683Z,4.67
2019-03-04T19:41:34.754Z,5.00
2019-03-04T19:44:12.354Z,4.50
2019-03-04T19:46:49.745Z,4.60
2019-03-04T19:49:26.816Z,4.67
2019-03-04T19:52:04.092Z,4.90
2019-03-04T19:54:41.481Z,4.55
2019-03-04T19:57:19.134Z,4.70
2019-03-04T19:59:56.818Z,4.70
2019-03-04T20:02:33.834Z,4.95
2019-03-04T20:05:11.373Z,5.12
2019-03-04T20:07:48.586Z,4.80
2019-03-04T20:10:26.214Z,5.83
2019-03-04T20:13:03.628Z,5.47
2019-03-04T20:15:40.749Z,4.87
2019-03-04T20:18:17.993Z,5.85
2019-03-04T20:20:56.716Z,4.87
2019-03-04T20:23:33.876Z,5.35
2019-03-04T20:26:11.202Z,4.67
2019-03-04T20:28:48.608Z,4.70
2019-03-04T20:31:26.436Z,4.87
2019-03-04T20:34:03.520Z,4.60
2019-03-04T20:36:42.389Z,4.75
2019-03-04T20:39:20.106Z,4.60
2019-03-04T20:41:57.567Z,5.22
2019-03-04T20:44:34.729Z,4.80
2019-03-04T20:47:12.000Z,4.65
2019-03-04T20:49:49.059Z,4.62
2019-03-04T20:52:26.378Z,4.85
2019-03-04T20:55:03.794Z,4.17
2019-03-04T20:57:41.271Z,4.90
2019-03-04T21:00:21.429Z,4.60
2019-03-04T21:02:58.825Z,5.67
2019-03-04T21:05:36.061Z,4.40
2019-03-04T21:08:13.691Z,5.10
2019-03-04T21:10:51.192Z,4.53
2019-03-04T21:13:35.019Z,4.85
2019-03-04T21:16:07.262Z,4.80
2019-03-04T21:18:44.372Z,4.60
2019-03-04T21:21:21.859Z,4.40
2019-03-04T21:23:59.035Z,4.28
2019-03-04T21:26:45.431Z,4.17
2019-03-04T21:29:54.180Z,3.98
2019-03-04T21:33:00.298Z,5.10
2019-03-04T21:36:16.771Z,3.90
2019-03-04T21:38:54.713Z,3.65
2019-03-04T21:41:56.850Z,4.65
2019-03-04T21:45:16.933Z,4.05
2019-03-04T21:48:07.399Z,3.85
2019-03-04T21:51:11.393Z,4.00
2019-03-04T21:53:51.006Z,4.15
2019-03-04T21:57:04.574Z,5.03
2019-03-04T21:59:42.399Z,3.52
2019-03-04T22:02:27.756Z,4.65
2019-03-04T22:05:06.327Z,3.22
2019-03-04T22:07:43.455Z,3.98
2019-03-04T22:10:20.851Z,3.98
2019-03-04T22:12:58.130Z,4.20
2019-03-04T22:15:36.427Z,3.60
2019-03-04T22:18:14.228Z,3.80
2019-03-04T22:20:51.418Z,3.85
2019-03-04T22:23:28.678Z,4.17
2019-03-04T22:26:05.840Z,4.05
2019-03-04T22:28:42.961Z,3.95
2019-03-04T22:31:20.138Z,4.37
2019-03-04T22:34:07.735Z,3.87
2019-03-04T22:36:38.639Z,3.70
2019-03-04T22:39:15.790Z,3.37
2019-03-04T22:41:57.146Z,3.50
2019-03-04T22:44:34.906Z,4.15
2019-03-04T22:47:11.998Z,3.72
2019-03-04T22:49:49.213Z,4.00
2019-03-04T22:52:45.989Z,3.75
2019-03-04T22:55:49.149Z,4.22
2019-03-04T22:58:28.823Z,3.42
2019-03-04T23:01:42.624Z,4.03
2019-03-04T23:04:27.698Z,3.67
2019-03-04T23:07:32.422Z,3.42
2019-03-04T23:10:25.236Z,3.75
2019-03-04T23:13:21.116Z,3.65
2019-03-04T23:15:59.270Z,3.92
2019-03-04T23:18:36.408Z,3.65
2019-03-04T23:21:13.599Z,3.35
2019-03-04T23:23:50.765Z,3.90
2019-03-04T23:26:28.022Z,3.80
2019-03-04T23:29:05.117Z,3.67
2019-03-04T23:31:42.131Z,3.58
2019-03-04T23:34:19.319Z,4.03
2019-03-04T23:36:53.999Z,4.03
2019-03-04T23:39:31.132Z,4.25
2019-03-04T23:42:08.215Z,5.65
2019-03-04T23:44:43.097Z,4.45
2019-03-04T23:47:17.772Z,4.70
2019-03-04T23:50:08.159Z,3.72
2019-03-04T23:52:45.572Z,4.42
2019-03-04T23:55:20.474Z,4.10
2019-03-04T23:57:57.460Z,3.70
